Time;durP1;ratioP1;P1;durP2;ratioP2;P2;SDS_P1;SDS_P2;PMS_P1;PMS_P2;Temp;Humidity;BMP_temperature;BMP_pressure;BME280_temperature;BME280_humidity;BME280_pressure;Samples;Min_cycle;Max_cycle;Signal;HPM_P1;HPM_P2
2023/09/04 00:01:57;;;;;;;;;;;;;;;15.05;87.90;102706.28;5063835;28;1166;-82
2023/09/04 00:04:22;;;;;;;;;;;;;;;15.02;87.87;102701.25;5059916;28;1310;-81
2023/09/04 00:06:47;;;;;;;;;;;;;;;14.98;88.26;102699.81;5066792;28;1077;-82
2023/09/04 00:09:15;;;;;;;;;;;;;;;14.96;88.10;102701.69;5062872;28;1004;-82
2023/09/04 00:11:40;;;;;;;;;;;;;;;14.93;88.36;102696.69;5064768;28;1971;-83
2023/09/04 00:14:07;;;;;;;;;;;;;;;14.90;88.38;102689.06;5060306;28;1046;-82
2023/09/04 00:16:33;;;;;;;;;;;;;;;14.84;88.27;102683.31;5062988;28;977;-81
2023/09/04 00:18:58;;;;;;;;;;;;;;;14.83;88.48;102692.09;5065483;28;1144;-83
2023/09/04 00:21:23;;;;;;;;;;;;;;;14.83;88.83;102692.09;5065865;28;1085;-82
2023/09/04 00:23:51;;;;;;;;;;;;;;;14.81;88.92;102694.00;5065480;28;1151;-82
2023/09/04 00:26:16;;;;;;;;;;;;;;;14.78;89.02;102688.97;5067011;28;980;-82
2023/09/04 00:28:41;;;;;;;;;;;;;;;14.77;89.11;102692.53;5058145;28;1255;-82
2023/09/04 00:31:09;;;;;;;;;;;;;;;14.76;88.78;102690.88;5062738;28;1965;-82
2023/09/04 00:33:34;;;;;;;;;;;;;;;14.72;89.13;102697.25;5065449;28;1176;-81
2023/09/04 00:36:00;;;;;;;;;;;;;;;14.70;89.15;102699.13;5064834;28;1004;-82
2023/09/04 00:38:25;;;;;;;;;;;;;;;14.67;89.45;102696.72;5049545;28;1295;-82
2023/09/04 00:40:52;;;;;;;;;;;;;;;14.63;89.37;102695.28;5066823;28;1415;-82
2023/09/04 00:43:27;;;;;;;;;;;;;;;14.61;89.46;102697.97;5048778;28;1356;-82
2023/09/04 00:46:13;;;;;;;;;;;;;;;14.61;89.52;102697.16;5045814;28;1319;-81
2023/09/04 00:48:43;;;;;;;;;;;;;;;14.55;89.62;102701.00;5051435;28;1340;-83
2023/09/04 00:51:10;;;;;;;;;;;;;;;14.53;89.57;102700.28;5060610;28;1925;-82
2023/09/04 00:57:02;;;;;;;;;;;;;;;14.49;89.75;102708.44;5059686;28;1859;-82
2023/09/04 00:59:43;;;;;;;;;;;;;;;14.48;89.92;102701.53;5062894;28;1159;-82
2023/09/04 01:02:19;;;;;;;;;;;;;;;;;;;;;
2023/09/04 01:04:50;;;;;;;;;;;;;;;14.40;90.20;102694.22;5066075;28;1699;-82
2023/09/04 01:07:21;;;;;;;;;;;;;;;14.40;90.45;102693.38;5048663;28;1328;-81
2023/09/04 01:10:05;;;;;;;;;;;;;;;;;;;;;
2023/09/04 01:12:55;;;;;;;;;;;;;;;14.35;90.67;102678.84;5064833;28;1267;-82
2023/09/04 01:15:43;;;;;;;;;;;;;;;14.33;91.09;102682.50;5040952;28;1396;-82
2023/09/04 01:18:14;;;;;;;;;;;;;;;14.31;91.39;102680.00;5051770;28;1254;-82
2023/09/04 01:23:37;;;;;;;;;;;;;;;14.25;91.34;102675.19;5056453;28;1279;-82
2023/09/04 01:26:08;;;;;;;;;;;;;;;14.26;91.67;102687.31;5066422;28;1231;-82
2023/09/04 01:28:50;;;;;;;;;;;;;;;14.25;91.72;102688.25;5063643;28;1230;-82
2023/09/04 01:31:31;;;;;;;;;;;;;;;14.26;91.62;102696.91;5047683;28;1914;-82
2023/09/04 01:34:16;;;;;;;;;;;;;;;14.23;91.96;102697.97;5061594;28;1251;-82
2023/09/04 01:39:42;;;;;;;;;;;;;;;14.18;92.09;102697.44;5055182;28;1353;-82
2023/09/04 01:42:17;;;;;;;;;;;;;;;14.16;92.11;102695.84;5064125;28;1071;-82
2023/09/04 01:48:01;;;;;;;;;;;;;;;14.08;92.60;102683.31;5060880;28;1090;-82
2023/09/04 01:50:51;;;;;;;;;;;;;;;14.04;92.75;102680.06;5046872;28;1898;-82
2023/09/04 01:53:28;;;;;;;;;;;;;;;14.02;92.92;102678.50;5051381;28;1209;-82
2023/09/04 01:55:56;;;;;;;;;;;;;;;14.02;92.99;102673.28;5063485;28;1393;-82
2023/09/04 01:58:34;;;;;;;;;;;;;;;14.02;92.91;102676.75;5067159;28;1285;-82
2023/09/04 02:00:59;;;;;;;;;;;;;;;14.01;92.73;102671.63;5065732;28;1203;-82
2023/09/04 02:06:32;;;;;;;;;;;;;;;13.95;92.92;102669.44;5056873;28;1432;-82
2023/09/04 02:11:57;;;;;;;;;;;;;;;13.90;92.98;102674.13;5059155;28;1141;-82
2023/09/04 02:14:27;;;;;;;;;;;;;;;13.89;93.22;102677.66;5046067;28;1390;-82
2023/09/04 02:17:09;;;;;;;;;;;;;;;13.86;93.24;102677.84;5047796;28;1286;-82
2023/09/04 02:19:47;;;;;;;;;;;;;;;13.84;93.50;102677.13;5064969;28;1090;-82
2023/09/04 02:22:38;;;;;;;;;;;;;;;13.81;93.63;102665.94;5053762;28;1339;-81
2023/09/04 02:25:07;;;;;;;;;;;;;;;13.79;93.55;102673.03;5055461;28;2091;-82
2023/09/04 02:27:38;;;;;;;;;;;;;;;13.76;93.84;102682.81;5068566;28;1032;-82
2023/09/04 02:30:11;;;;;;;;;;;;;;;13.71;93.96;102680.53;5052684;28;1898;-81
2023/09/04 02:33:00;;;;;;;;;;;;;;;13.66;93.97;102666.13;5068459;28;1061;-82
2023/09/04 02:35:34;;;;;;;;;;;;;;;13.61;93.99;102658.59;5055006;28;1361;-82
2023/09/04 02:38:03;;;;;;;;;;;;;;;13.61;94.20;102668.19;5067644;28;1047;-81
2023/09/04 02:40:39;;;;;;;;;;;;;;;13.61;94.33;102663.81;5052189;28;1311;-82
2023/09/04 02:43:05;;;;;;;;;;;;;;;13.61;94.40;102669.03;5068841;28;1410;-81
2023/09/04 02:45:30;;;;;;;;;;;;;;;13.58;94.40;102657.97;5063295;28;1517;-81
2023/09/04 02:47:56;;;;;;;;;;;;;;;13.57;94.35;102661.50;5045703;28;1517;-82
2023/09/04 02:50:21;;;;;;;;;;;;;;;13.53;94.45;102663.47;5054486;28;1953;-82
2023/09/04 02:52:46;;;;;;;;;;;;;;;13.53;94.66;102663.47;5060055;28;1269;-81
2023/09/04 02:55:13;;;;;;;;;;;;;;;13.53;94.46;102660.84;5041232;28;1485;-81
2023/09/04 02:57:38;;;;;;;;;;;;;;;13.51;94.60;102660.13;5051422;28;1196;-81
2023/09/04 03:00:06;;;;;;;;;;;;;;;13.49;94.77;102662.00;5053740;28;1341;-81
2023/09/04 03:02:35;;;;;;;;;;;;;;;13.47;95.05;102650.84;5062667;28;1181;-80
2023/09/04 03:05:00;;;;;;;;;;;;;;;13.47;95.14;102656.03;5064173;28;1518;-82
2023/09/04 03:07:28;;;;;;;;;;;;;;;13.43;95.20;102652.81;5061169;28;1549;-82
2023/09/04 03:10:02;;;;;;;;;;;;;;;13.45;95.33;102647.50;5044781;28;1898;-82
2023/09/04 03:12:30;;;;;;;;;;;;;;;13.43;95.31;102652.00;5061242;28;1325;-82
2023/09/04 03:15:03;;;;;;;;;;;;;;;13.42;95.61;102645.06;5043013;28;1331;-81
2023/09/04 03:17:29;;;;;;;;;;;;;;;13.43;95.75;102638.94;5054121;28;1558;-82
2023/09/04 03:19:55;;;;;;;;;;;;;;;13.44;95.51;102640.63;5046887;28;1518;-81
2023/09/04 03:22:25;;;;;;;;;;;;;;;13.44;95.72;102641.44;5067372;28;1260;-82
2023/09/04 03:24:51;;;;;;;;;;;;;;;13.43;95.56;102638.94;5069619;28;1283;-82
2023/09/04 03:27:27;;;;;;;;;;;;;;;13.43;95.83;102638.94;5068556;28;1104;-82
2023/09/04 03:30:00;;;;;;;;;;;;;;;13.42;95.80;102637.25;5057847;28;1914;-82
2023/09/04 03:32:31;;;;;;;;;;;;;;;13.42;96.11;102629.44;5052650;28;1247;-82
2023/09/04 03:34:59;;;;;;;;;;;;;;;13.41;95.86;102630.38;5054158;28;1581;-82
2023/09/04 03:37:24;;;;;;;;;;;;;;;13.40;95.91;102623.50;5062988;28;1491;-82
2023/09/04 03:39:54;;;;;;;;;;;;;;;13.39;95.92;102622.66;5054573;28;1462;-82
2023/09/04 03:42:20;;;;;;;;;;;;;;;13.37;95.89;102623.72;5046960;28;1378;-81
2023/09/04 03:44:45;;;;;;;;;;;;;;;13.36;96.15;102616.81;5065697;28;1580;-82
2023/09/04 03:47:13;;;;;;;;;;;;;;;13.35;96.04;102620.34;5061581;28;1274;-82
2023/09/04 03:49:38;;;;;;;;;;;;;;;13.32;96.22;102615.34;5058092;28;1898;-82
2023/09/04 03:52:04;;;;;;;;;;;;;;;13.29;96.45;102612.00;5057221;28;990;-82
2023/09/04 03:54:29;;;;;;;;;;;;;;;13.28;96.60;102612.09;5064173;28;1247;-81
2023/09/04 03:56:55;;;;;;;;;;;;;;;13.26;96.26;102612.22;5055178;28;1434;-82
2023/09/04 03:59:20;;;;;;;;;;;;;;;13.25;96.55;102605.31;5035761;28;1335;-81
2023/09/04 04:01:45;;;;;;;;;;;;;;;13.23;96.76;102601.97;5060779;28;1032;-81
2023/09/04 04:04:11;;;;;;;;;;;;;;;13.21;96.94;102603.84;5061050;28;1021;-82
2023/09/04 04:06:37;;;;;;;;;;;;;;;13.22;96.87;102600.31;5044449;28;1249;-83
2023/09/04 04:09:03;;;;;;;;;;;;;;;13.21;96.79;102598.63;5068576;28;1010;-82
2023/09/04 04:11:28;;;;;;;;;;;;;;;13.22;96.89;102600.31;5056441;28;1894;-81
2023/09/04 04:13:53;;;;;;;;;;;;;;;13.21;97.11;102598.63;5049232;28;1263;-82
2023/09/04 04:16:19;;;;;;;;;;;;;;;13.21;97.12;102600.41;5054766;28;1175;-82
2023/09/04 04:18:44;;;;;;;;;;;;;;;13.18;97.24;102593.56;5058856;28;1090;-82
2023/09/04 04:21:09;;;;;;;;;;;;;;;13.18;97.39;102593.56;5052658;28;1173;-82
2023/09/04 04:23:37;;;;;;;;;;;;;;;13.15;97.29;102588.56;5056061;28;1433;-82
2023/09/04 04:26:03;;;;;;;;;;;;;;;13.13;97.32;102593.06;5051971;28;1426;-80
2023/09/04 04:28:28;;;;;;;;;;;;;;;13.11;97.51;102597.50;5061103;28;1361;-81
2023/09/04 04:30:53;;;;;;;;;;;;;;;13.10;97.50;102601.06;5062260;28;1898;-82
2023/09/04 04:33:18;;;;;;;;;;;;;;;13.09;97.57;102598.56;5055952;28;1296;-82
2023/09/04 04:35:44;;;;;;;;;;;;;;;13.09;97.28;102594.19;5059880;28;1235;-82
2023/09/04 04:38:09;;;;;;;;;;;;;;;13.09;97.89;102594.19;5059306;28;1320;-82
2023/09/04 04:40:41;;;;;;;;;;;;;;;13.07;97.42;102593.44;5065426;28;1250;-82
2023/09/04 04:43:06;;;;;;;;;;;;;;;13.07;97.91;102593.44;5064336;28;1503;-81
2023/09/04 04:45:33;;;;;;;;;;;;;;;13.07;98.16;102597.81;5062428;28;1291;-82
2023/09/04 04:48:01;;;;;;;;;;;;;;;13.06;98.04;102598.75;5066677;28;1458;-82
2023/09/04 04:50:26;;;;;;;;;;;;;;;13.03;98.06;102597.19;5065541;28;1885;-82
2023/09/04 04:52:51;;;;;;;;;;;;;;;13.00;98.12;102597.34;5054419;28;1538;-82
2023/09/04 04:55:17;;;;;;;;;;;;;;;13.00;97.92;102599.97;5050021;28;1339;-81
2023/09/04 04:57:44;;;;;;;;;;;;;;;12.98;98.00;102592.25;5066754;28;1360;-81
2023/09/04 05:00:21;;;;;;;;;;;;;;;12.96;98.14;102593.28;5062958;28;1188;-82
2023/09/04 05:02:46;;;;;;;;;;;;;;;12.94;98.11;102587.34;5059054;28;1303;-81
2023/09/04 05:05:12;;;;;;;;;;;;;;;12.93;98.31;102583.06;5061430;28;1311;-82
2023/09/04 05:07:41;;;;;;;;;;;;;;;12.92;98.42;102581.41;5065212;28;1354;-82
2023/09/04 05:10:15;;;;;;;;;;;;;;;12.91;98.25;102585.78;5064588;28;1902;-81
2023/09/04 05:12:41;;;;;;;;;;;;;;;12.90;98.30;102581.50;5051753;28;1244;-82
2023/09/04 05:15:09;;;;;;;;;;;;;;;12.89;98.29;102584.19;5059521;28;1224;-82
2023/09/04 05:17:37;;;;;;;;;;;;;;;12.87;98.30;102579.06;5064814;28;1667;-82
2023/09/04 05:20:03;;;;;;;;;;;;;;;12.83;98.51;102576.75;5061185;28;1213;-82
2023/09/04 05:22:30;;;;;;;;;;;;;;;12.82;98.25;102580.31;5049684;28;1272;-82
2023/09/04 05:24:57;;;;;;;;;;;;;;;12.82;98.76;102580.31;5060358;28;1740;-81
2023/09/04 05:27:25;;;;;;;;;;;;;;;12.82;99.07;102585.50;5053108;28;1276;-82
2023/09/04 05:29:51;;;;;;;;;;;;;;;12.85;98.95;102595.75;5064508;28;1894;-82
2023/09/04 05:32:16;;;;;;;;;;;;;;;12.89;98.71;102597.19;5053091;28;1347;-82
2023/09/04 05:34:42;;;;;;;;;;;;;;;12.91;99.09;102597.97;5079293;22;1738;-82
2023/09/04 05:37:08;;;;;;;;;;;;;;;12.91;98.58;102601.41;5063763;28;1438;-81
2023/09/04 05:39:41;;;;;;;;;;;;;;;12.91;98.71;102600.56;5065940;28;1195;-81
2023/09/04 05:42:06;;;;;;;;;;;;;;;12.92;99.36;102597.03;5060881;28;1075;-82
2023/09/04 05:44:34;;;;;;;;;;;;;;;12.93;98.99;102596.91;5068923;28;1441;-81
2023/09/04 05:47:01;;;;;;;;;;;;;;;12.95;99.23;102586.41;5061451;28;1252;-81
2023/09/04 05:49:29;;;;;;;;;;;;;;;12.99;99.43;102593.09;5064386;28;1355;-82
2023/09/04 05:51:54;;;;;;;;;;;;;;;13.02;99.25;102592.91;5061513;28;1898;-82
2023/09/04 05:54:20;;;;;;;;;;;;;;;13.07;99.62;102596.03;5064312;28;1324;-82
2023/09/04 05:56:45;;;;;;;;;;;;;;;13.07;99.69;102590.81;5062944;28;1195;-82
2023/09/04 05:59:14;;;;;;;;;;;;;;;13.09;99.71;102599.41;5050503;28;1405;-82
2023/09/04 06:01:40;;;;;;;;;;;;;;;13.13;99.74;102606.09;5059425;28;988;-82
2023/09/04 06:04:10;;;;;;;;;;;;;;;13.18;99.89;102604.00;5057089;28;1175;-81
2023/09/04 06:06:37;;;;;;;;;;;;;;;13.24;99.56;102602.78;5046312;28;1354;-81
2023/09/04 06:09:02;;;;;;;;;;;;;;;13.29;99.54;102612.00;5062548;28;982;-81
2023/09/04 06:11:27;;;;;;;;;;;;;;;13.35;99.31;102615.97;5064704;28;1951;-81
2023/09/04 06:13:53;;;;;;;;;;;;;;;13.40;100.00;102607.84;5056581;28;1326;-82
2023/09/04 06:16:19;;;;;;;;;;;;;;;13.45;100.00;102605.78;5063468;28;1088;-81
2023/09/04 06:18:47;;;;;;;;;;;;;;;13.52;99.92;102612.28;5051972;28;1204;-81
2023/09/04 06:21:12;;;;;;;;;;;;;;;13.58;100.00;102611.88;5046340;28;2295;-82
2023/09/04 06:23:38;;;;;;;;;;;;;;;13.63;100.00;102608.97;5048590;28;1216;-82
2023/09/04 06:26:03;;;;;;;;;;;;;;;13.70;100.00;102605.84;5044815;28;1328;-82
2023/09/04 06:28:28;;;;;;;;;;;;;;;13.77;100.00;102599.28;5060670;28;1494;-81
2023/09/04 06:30:55;;;;;;;;;;;;;;;13.84;100.00;102606.72;5060046;28;1969;-81
2023/09/04 06:33:20;;;;;;;;;;;;;;;13.88;100.00;102602.94;5050794;28;1367;-82
2023/09/04 06:35:45;;;;;;;;;;;;;;;13.95;100.00;102609.44;5063215;28;1382;-81
2023/09/04 06:38:12;;;;;;;;;;;;;;;14.03;100.00;102609.75;5066793;28;1125;-81
2023/09/04 06:40:42;;;;;;;;;;;;;;;14.10;100.00;102603.16;5059564;28;1236;-82
2023/09/04 06:43:07;;;;;;;;;;;;;;;14.17;99.90;102604.44;5050595;28;1387;-82
2023/09/04 06:45:32;;;;;;;;;;;;;;;14.25;99.58;102598.69;5043590;28;1286;-82
2023/09/04 06:47:58;;;;;;;;;;;;;;;14.30;99.89;102600.03;5064548;28;1387;-82
2023/09/04 06:50:23;;;;;;;;;;;;;;;14.38;100.00;102596.03;5060407;28;1901;-82
2023/09/04 06:52:49;;;;;;;;;;;;;;;14.44;99.90;102600.84;5073643;28;1240;-82
2023/09/04 06:55:14;;;;;;;;;;;;;;;14.54;100.00;102596.69;5062582;28;1284;-82
2023/09/04 06:57:39;;;;;;;;;;;;;;;14.62;100.00;102586.50;5063020;28;1380;-82
2023/09/04 07:00:11;;;;;;;;;;;;;;;14.69;99.68;102585.16;5063484;28;1229;-82
2023/09/04 07:02:37;;;;;;;;;;;;;;;14.77;100.00;102588.06;5046711;28;1308;-82
2023/09/04 07:05:03;;;;;;;;;;;;;;;14.85;100.00;102590.97;5068160;28;1249;-82
2023/09/04 07:07:28;;;;;;;;;;;;;;;14.95;100.00;102596.34;5065835;28;1504;-82
2023/09/04 07:09:53;;;;;;;;;;;;;;;15.03;100.00;102599.25;5054274;28;1894;-82
2023/09/04 07:12:19;;;;;;;;;;;;;;;15.11;100.00;102596.91;5049460;28;1579;-82
2023/09/04 07:14:44;;;;;;;;;;;;;;;15.20;99.42;102595.41;5062479;28;1315;-82
2023/09/04 07:17:09;;;;;;;;;;;;;;;15.30;99.64;102599.00;5050327;28;1533;-82
2023/09/04 07:19:34;;;;;;;;;;;;;;;15.39;100.00;102589.66;5048525;28;1261;-82
2023/09/04 07:21:59;;;;;;;;;;;;;;;15.49;100.00;102595.06;5064552;28;1372;-82
2023/09/04 07:24:25;;;;;;;;;;;;;;;15.59;99.58;102591.63;5051641;28;1184;-82
2023/09/04 07:26:50;;;;;;;;;;;;;;;15.68;99.46;102594.53;5051737;28;1300;-82
2023/09/04 07:29:17;;;;;;;;;;;;;;;15.78;98.20;102591.13;5073219;28;1315;-82
2023/09/04 07:31:42;;;;;;;;;;;;;;;15.88;98.81;102594.69;5065690;28;1943;-82
2023/09/04 07:34:07;;;;;;;;;;;;;;;15.98;98.73;102591.38;5063768;28;1631;-83
2023/09/04 07:36:32;;;;;;;;;;;;;;;16.05;98.55;102598.63;5065911;28;1340;-82
2023/09/04 07:38:57;;;;;;;;;;;;;;;16.14;97.77;102582.22;5061005;28;1506;-82
2023/09/04 07:41:23;;;;;;;;;;;;;;;16.24;97.61;102586.78;5050255;28;1320;-82
2023/09/04 07:43:49;;;;;;;;;;;;;;;16.31;97.61;102591.41;5062543;28;1564;-81
2023/09/04 07:46:14;;;;;;;;;;;;;;;16.46;96.55;102592.84;5078159;28;1541;-81
2023/09/04 07:48:40;;;;;;;;;;;;;;;16.50;96.81;102592.56;5054280;28;1232;-82
2023/09/04 07:51:06;;;;;;;;;;;;;;;16.55;95.23;102595.66;5051820;28;1971;-82
2023/09/04 07:53:31;;;;;;;;;;;;;;;16.63;95.69;102593.25;5045623;28;1320;-81
2023/09/04 07:55:56;;;;;;;;;;;;;;;16.69;95.76;102593.63;5062330;28;1067;-81
2023/09/04 07:58:22;;;;;;;;;;;;;;;16.78;95.92;102599.13;5064333;28;945;-81
2023/09/04 08:00:50;;;;;;;;;;;;;;;16.87;95.25;102601.03;5056129;28;1124;-82
2023/09/04 08:03:16;;;;;;;;;;;;;;;16.98;94.62;102604.44;5064519;28;914;-82
2023/09/04 08:05:41;;;;;;;;;;;;;;;17.05;94.34;102591.66;5061103;28;1202;-83
2023/09/04 08:08:10;;;;;;;;;;;;;;;17.13;94.87;102598.91;5065428;28;1116;-82
2023/09/04 08:10:40;;;;;;;;;;;;;;;17.24;94.52;102598.84;5062843;28;1917;-82
2023/09/04 08:13:09;;;;;;;;;;;;;;;17.34;93.61;102602.41;5064656;28;1227;-81
2023/09/04 08:15:34;;;;;;;;;;;;;;;17.41;93.08;102606.16;5061538;28;1154;-82
2023/09/04 08:17:59;;;;;;;;;;;;;;;17.50;93.21;102594.94;5053304;28;1175;-82
2023/09/04 08:20:25;;;;;;;;;;;;;;;17.63;92.73;102596.53;5059424;28;1186;-82
2023/09/04 08:22:50;;;;;;;;;;;;;;;17.69;92.37;102599.47;5055425;28;1482;-80
2023/09/04 08:25:15;;;;;;;;;;;;;;;17.73;91.72;102605.34;5063558;28;1244;-83
2023/09/04 08:27:40;;;;;;;;;;;;;;;17.78;91.48;102603.16;5061218;28;1339;-82
2023/09/04 08:30:06;;;;;;;;;;;;;;;17.88;91.13;102595.31;5062683;28;1967;-82
2023/09/04 08:32:31;;;;;;;;;;;;;;;17.94;91.04;102593.00;5066002;28;1808;-82
2023/09/04 08:34:56;;;;;;;;;;;;;;;18.05;91.56;102595.56;5060586;28;1510;-83
2023/09/04 08:37:21;;;;;;;;;;;;;;;18.18;90.82;102594.50;5073743;28;1442;-82
2023/09/04 08:39:47;;;;;;;;;;;;;;;18.24;89.70;102588.75;5063049;28;1204;-82
2023/09/04 08:42:13;;;;;;;;;;;;;;;18.30;90.30;102589.03;5046013;28;1510;-82
2023/09/04 08:44:39;;;;;;;;;;;;;;;18.40;88.59;102589.06;5058439;28;1094;-82
2023/09/04 08:47:06;;;;;;;;;;;;;;;18.48;88.04;102588.41;5047020;28;1245;-82
2023/09/04 08:49:31;;;;;;;;;;;;;;;18.53;87.42;102584.41;5044002;28;1269;-81
2023/09/04 08:51:56;;;;;;;;;;;;;;;18.61;87.69;102585.53;5061156;28;1881;-82
2023/09/04 08:54:22;;;;;;;;;;;;;;;18.70;86.91;102584.75;5057150;28;1263;-82
2023/09/04 08:56:47;;;;;;;;;;;;;;;18.74;86.67;102578.25;5058945;28;1357;-83
2023/09/04 08:59:13;;;;;;;;;;;;;;;18.80;86.39;102582.97;5048043;28;1427;-82
2023/09/04 09:01:40;;;;;;;;;;;;;;;18.87;85.99;102583.25;5059256;28;1188;-82
2023/09/04 09:04:05;;;;;;;;;;;;;;;18.92;86.24;102573.97;5058536;28;1743;-81
2023/09/04 09:06:32;;;;;;;;;;;;;;;18.97;85.08;102577.03;5070883;28;1630;-82
2023/09/04 09:08:58;;;;;;;;;;;;;;;19.07;86.32;102577.88;5052809;28;1240;-82
2023/09/04 09:11:23;;;;;;;;;;;;;;;19.22;86.20;102580.09;5067649;28;1956;-82
2023/09/04 09:13:49;;;;;;;;;;;;;;;19.31;85.88;102573.97;5053840;28;1267;-83
2023/09/04 09:16:18;;;;;;;;;;;;;;;19.39;85.81;102571.50;5065154;28;1429;-82
2023/09/04 09:18:43;;;;;;;;;;;;;;;19.43;84.35;102564.13;5068577;28;1268;-82
2023/09/04 09:21:21;;;;;;;;;;;;;;;19.50;85.26;102579.25;5067565;28;1253;-82
2023/09/04 09:23:47;;;;;;;;;;;;;;;19.63;84.53;102563.19;5071499;28;1247;-82
2023/09/04 09:26:13;;;;;;;;;;;;;;;19.76;82.07;102563.69;5070089;28;1122;-82
2023/09/04 09:28:41;;;;;;;;;;;;;;;19.82;82.45;102565.75;5056695;28;1362;-81
2023/09/04 09:31:06;;;;;;;;;;;;;;;19.89;81.82;102563.34;5066522;28;1973;-81
2023/09/04 09:33:34;;;;;;;;;;;;;;;19.90;82.60;102570.31;5067054;28;1552;-81
2023/09/04 09:35:59;;;;;;;;;;;;;;;19.96;81.32;102580.28;5051521;28;1558;-82
2023/09/04 09:38:24;;;;;;;;;;;;;;;19.99;80.91;102579.97;5055781;28;1446;-82
2023/09/04 09:40:50;;;;;;;;;;;;;;;20.07;81.12;102572.19;5053468;28;1285;-83
2023/09/04 09:43:15;;;;;;;;;;;;;;;20.17;80.48;102567.69;5066441;28;1349;-83
2023/09/04 09:45:40;;;;;;;;;;;;;;;20.26;81.04;102570.44;5054084;28;1198;-82
2023/09/04 09:48:11;;;;;;;;;;;;;;;20.40;80.35;102569.94;5061717;28;1243;-84
2023/09/04 09:50:37;;;;;;;;;;;;;;;20.48;80.20;102564.81;5066540;28;1889;-82
2023/09/04 09:53:03;;;;;;;;;;;;;;;20.54;78.77;102566.00;5062863;28;1324;-82
2023/09/04 09:55:29;;;;;;;;;;;;;;;20.63;79.84;102563.31;5066324;28;1130;-82
2023/09/04 09:57:56;;;;;;;;;;;;;;;20.79;80.16;102567.09;5059580;28;1225;-82
2023/09/04 10:00:21;;;;;;;;;;;;;;;20.93;80.44;102564.78;5068802;28;1550;-82
2023/09/04 10:02:47;;;;;;;;;;;;;;;21.10;79.58;102560.44;5066346;28;1149;-82
2023/09/04 10:05:12;;;;;;;;;;;;;;;21.17;77.95;102561.50;5066354;28;1012;-82
2023/09/04 10:07:38;;;;;;;;;;;;;;;21.25;78.60;102557.28;5070623;28;1136;-82
2023/09/04 10:10:05;;;;;;;;;;;;;;;21.37;78.61;102553.44;5066727;28;1961;-84
2023/09/04 10:12:49;;;;;;;;;;;;;;;21.43;74.07;102547.53;5055781;28;1328;-83
2023/09/04 10:15:20;;;;;;;;;;;;;;;21.45;74.63;102548.22;5064565;28;966;-82
2023/09/04 10:18:08;;;;;;;;;;;;;;;21.43;74.11;102542.25;5065017;28;1179;-82
2023/09/04 10:20:35;;;;;;;;;;;;;;;21.56;73.79;102542.66;5059822;28;971;-83
2023/09/04 10:23:05;;;;;;;;;;;;;;;21.70;74.88;102534.19;5064016;28;979;-82
2023/09/04 10:25:49;;;;;;;;;;;;;;;21.88;72.99;102533.28;5062906;28;1177;-82
2023/09/04 10:28:21;;;;;;;;;;;;;;;21.95;73.07;102529.84;5058849;28;1240;-83
2023/09/04 10:30:49;;;;;;;;;;;;;;;21.97;70.06;102540.25;5065214;28;1953;-82
2023/09/04 10:33:14;;;;;;;;;;;;;;;22.02;70.00;102543.22;5063424;28;1291;-82
2023/09/04 10:35:40;;;;;;;;;;;;;;;22.08;71.68;102544.41;5056674;28;1292;-81
2023/09/04 10:38:06;;;;;;;;;;;;;;;22.16;71.42;102547.97;5067432;28;1295;-81
2023/09/04 10:40:32;;;;;;;;;;;;;;;22.29;71.65;102541.38;5063637;28;1512;-82
2023/09/04 10:43:03;;;;;;;;;;;;;;;22.38;70.13;102540.44;5064540;28;1359;-82
2023/09/04 10:45:28;;;;;;;;;;;;;;;22.48;67.49;102531.38;5062613;28;1375;-82
2023/09/04 10:47:53;;;;;;;;;;;;;;;22.54;69.18;102529.91;5066043;28;1291;-82
2023/09/04 10:50:25;;;;;;;;;;;;;;;22.65;68.50;102526.94;5063731;28;1894;-81
2023/09/04 10:52:50;;;;;;;;;;;;;;;22.73;65.94;102524.31;5052702;28;1235;-82
2023/09/04 10:55:17;;;;;;;;;;;;;;;22.73;66.01;102524.31;5060462;28;1047;-82
2023/09/04 10:58:03;;;;;;;;;;;;;;;22.80;66.35;102520.00;5061462;28;1123;-81
2023/09/04 11:00:29;;;;;;;;;;;;;;;22.86;67.59;102520.34;5041353;28;1204;-81
2023/09/04 11:02:55;;;;;;;;;;;;;;;22.84;64.17;102509.09;5065204;28;1107;-82
2023/09/04 11:05:20;;;;;;;;;;;;;;;22.88;62.07;102515.72;5062270;28;1058;-83
2023/09/04 11:07:45;;;;;;;;;;;;;;;22.77;63.68;102499.19;5048319;28;1255;-82
2023/09/04 11:10:11;;;;;;;;;;;;;;;22.81;63.01;102499.66;5049907;28;1944;-82
2023/09/04 11:12:37;;;;;;;;;;;;;;;22.84;63.14;102498.53;5065898;28;1271;-83
2023/09/04 11:15:09;;;;;;;;;;;;;;;22.93;63.31;102495.72;5051078;28;1379;-82
2023/09/04 11:17:34;;;;;;;;;;;;;;;22.87;61.89;102492.88;5068820;28;1145;-82
2023/09/04 11:20:00;;;;;;;;;;;;;;;22.89;60.92;102496.25;5054611;28;1406;-82
2023/09/04 11:22:25;;;;;;;;;;;;;;;22.93;59.72;102497.53;5063246;28;1451;-81
2023/09/04 11:24:54;;;;;;;;;;;;;;;22.94;60.94;102488.59;5067742;28;1079;-83
2023/09/04 11:27:20;;;;;;;;;;;;;;;23.04;59.64;102483.97;5062238;28;973;-83
2023/09/04 11:29:45;;;;;;;;;;;;;;;23.05;61.02;102490.91;5056512;28;1416;-82
2023/09/04 11:32:11;;;;;;;;;;;;;;;23.01;60.36;102486.97;5064152;28;1886;-82
2023/09/04 11:34:36;;;;;;;;;;;;;;;23.11;58.33;102486.78;5062851;28;1007;-83
2023/09/04 11:37:02;;;;;;;;;;;;;;;23.17;60.13;102479.00;5052429;28;1360;-82
2023/09/04 11:39:27;;;;;;;;;;;;;;;23.30;61.17;102489.91;5063816;28;1173;-82
2023/09/04 11:41:53;;;;;;;;;;;;;;;23.44;58.96;102484.88;5063031;28;1191;-82
2023/09/04 11:44:18;;;;;;;;;;;;;;;23.56;58.36;102480.88;5065344;28;1381;-82
2023/09/04 11:46:44;;;;;;;;;;;;;;;23.42;59.10;102486.91;5063472;28;1067;-83
2023/09/04 11:49:09;;;;;;;;;;;;;;;23.38;58.06;102481.09;5059973;28;1153;-82
2023/09/04 11:51:35;;;;;;;;;;;;;;;23.46;59.13;102473.16;5058997;28;1890;-83
2023/09/04 11:54:04;;;;;;;;;;;;;;;23.57;57.46;102479.91;5062412;28;1473;-81
2023/09/04 11:56:30;;;;;;;;;;;;;;;23.53;58.94;102473.28;5059036;28;1085;-82
2023/09/04 11:58:55;;;;;;;;;;;;;;;23.68;59.62;102466.28;5061947;28;1128;-83
2023/09/04 12:01:20;;;;;;;;;;;;;;;23.82;59.16;102476.19;5048272;28;1259;-82
2023/09/04 12:03:46;;;;;;;;;;;;;;;23.91;57.99;102476.13;5063469;28;1341;-82
2023/09/04 12:06:11;;;;;;;;;;;;;;;23.96;57.51;102471.16;5063610;28;1426;-83
2023/09/04 12:08:36;;;;;;;;;;;;;;;23.95;57.93;102472.16;5060075;28;1504;-82
2023/09/04 12:11:01;;;;;;;;;;;;;;;23.94;58.38;102470.50;5064426;28;1890;-83
2023/09/04 12:13:27;;;;;;;;;;;;;;;23.97;55.39;102473.66;5048379;28;1219;-83
2023/09/04 12:15:52;;;;;;;;;;;;;;;23.97;56.09;102475.44;5049390;28;1358;-82
2023/09/04 12:18:17;;;;;;;;;;;;;;;24.10;56.85;102465.13;5047600;28;1306;-82
2023/09/04 12:20:43;;;;;;;;;;;;;;;24.12;56.18;102468.41;5051007;28;1347;-83
2023/09/04 12:23:09;;;;;;;;;;;;;;;24.11;56.39;102466.75;5063550;28;1297;-82
2023/09/04 12:25:42;;;;;;;;;;;;;;;24.07;56.36;102465.44;5055850;28;1533;-83
2023/09/04 12:28:08;;;;;;;;;;;;;;;24.09;55.17;102463.47;5053500;28;1334;-82
2023/09/04 12:30:35;;;;;;;;;;;;;;;24.08;56.61;102456.50;5058346;28;1953;-82
2023/09/04 12:33:00;;;;;;;;;;;;;;;24.08;55.15;102457.31;5057723;28;1322;-83
2023/09/04 12:35:25;;;;;;;;;;;;;;;24.11;56.27;102456.97;5062182;28;1410;-82
2023/09/04 12:37:54;;;;;;;;;;;;;;;24.23;56.93;102454.75;5055603;28;1547;-83
2023/09/04 12:40:21;;;;;;;;;;;;;;;24.44;56.83;102450.69;5063911;28;1501;-82
2023/09/04 12:42:46;;;;;;;;;;;;;;;24.53;55.83;102454.91;5053387;28;1425;-81
2023/09/04 12:45:11;;;;;;;;;;;;;;;24.54;56.01;102452.06;5060959;28;1206;-83
2023/09/04 12:47:36;;;;;;;;;;;;;;;24.49;54.41;102437.72;5063878;28;1058;-82
2023/09/04 12:50:02;;;;;;;;;;;;;;;24.45;55.89;102431.09;5058691;28;1898;-83
2023/09/04 12:52:29;;;;;;;;;;;;;;;24.44;54.98;102424.16;5050274;28;1492;-83
2023/09/04 12:54:54;;;;;;;;;;;;;;;24.45;55.10;102423.16;5047319;28;1521;-82
2023/09/04 12:57:20;;;;;;;;;;;;;;;24.43;56.17;102422.47;5058305;28;1145;-82
2023/09/04 12:59:45;;;;;;;;;;;;;;;24.47;55.43;102423.78;5055584;28;1149;-82
2023/09/04 13:02:10;;;;;;;;;;;;;;;24.45;53.99;102420.50;5048909;28;1296;-83
2023/09/04 13:04:35;;;;;;;;;;;;;;;24.33;54.55;102412.94;5063166;28;1056;-84
2023/09/04 13:07:01;;;;;;;;;;;;;;;24.26;54.53;102406.69;5066192;28;1109;-82
2023/09/04 13:09:26;;;;;;;;;;;;;;;24.33;55.17;102407.63;5063936;28;1173;-83